Time;durP1;ratioP1;P1;durP2;ratioP2;P2;SDS_P1;SDS_P2;PMS_P1;PMS_P2;Temp;Humidity;BMP_temperature;BMP_pressure;BME280_temperature;BME280_humidity;BME280_pressure;Samples;Min_cycle;Max_cycle;Signal;HPM_P1;HPM_P2
2021/09/22 00:00:21;;;;;;;14.27;9.37;;;10.50;99.90;;;;;;5020520;28;20394;-81
2021/09/22 00:02:47;;;;;;;13.73;10.20;;;10.50;99.90;;;;;;5020563;28;20405;-81
2021/09/22 00:05:13;;;;;;;10.17;8.70;;;10.70;99.90;;;;;;5020951;28;20448;-81
2021/09/22 00:07:40;;;;;;;12.53;9.70;;;10.60;99.90;;;;;;5020694;28;20186;-82
2021/09/22 00:10:10;;;;;;;13.07;10.03;;;10.30;99.90;;;;;;5020404;28;20476;-81
2021/09/22 00:12:36;;;;;;;12.20;9.23;;;10.10;99.90;;;;;;5019460;28;20390;-81
2021/09/22 00:15:05;;;;;;;12.77;9.30;;;9.90;99.90;;;;;;5018512;28;20470;-80
2021/09/22 00:17:32;;;;;;;12.20;9.03;;;9.90;99.90;;;;;;5017348;28;20441;-81
2021/09/22 00:19:58;;;;;;;18.77;10.43;;;10.00;99.90;;;;;;5001419;28;20464;-81
2021/09/22 00:22:24;;;;;;;14.20;10.47;;;10.10;99.90;;;;;;5001023;28;20501;-80
2021/09/22 00:24:50;;;;;;;11.70;9.23;;;10.10;99.90;;;;;;5002116;28;20269;-81
2021/09/22 00:27:15;;;;;;;12.50;9.57;;;10.20;99.90;;;;;;5001371;28;20587;-80
2021/09/22 00:29:41;;;;;;;14.83;10.20;;;10.30;99.90;;;;;;5001101;28;20591;-81
2021/09/22 00:32:07;;;;;;;9.80;8.33;;;10.20;99.90;;;;;;5001005;28;20184;-80
2021/09/22 00:34:33;;;;;;;12.60;9.60;;;10.30;99.90;;;;;;5000691;28;20408;-81
2021/09/22 00:36:59;;;;;;;9.07;8.17;;;10.20;99.90;;;;;;5000796;28;20842;-81
2021/09/22 00:39:25;;;;;;;10.83;8.83;;;10.20;99.90;;;;;;5000313;28;20166;-81
2021/09/22 00:41:51;;;;;;;11.07;7.83;;;10.30;99.90;;;;;;5000810;28;20177;-82
2021/09/22 00:44:17;;;;;;;14.50;8.23;;;10.30;99.90;;;;;;5001396;28;20162;-81
2021/09/22 00:46:42;;;;;;;9.67;8.67;;;10.40;99.90;;;;;;5000488;28;20852;-81
2021/09/22 00:49:08;;;;;;;13.43;9.67;;;10.50;99.90;;;;;;5000176;28;20277;-81
2021/09/22 00:51:34;;;;;;;10.60;8.47;;;10.50;99.90;;;;;;5000409;28;20158;-81
2021/09/22 00:54:00;;;;;;;10.13;8.53;;;10.50;99.90;;;;;;5000978;28;20163;-82
2021/09/22 00:56:26;;;;;;;8.10;7.30;;;10.50;99.90;;;;;;4999259;28;20162;-81
2021/09/22 00:58:52;;;;;;;10.27;7.80;;;10.40;99.90;;;;;;4999048;28;20843;-81
2021/09/22 01:01:19;;;;;;;13.77;9.03;;;10.30;99.90;;;;;;5000217;28;20249;-81
2021/09/22 01:03:44;;;;;;;12.30;8.80;;;10.20;99.90;;;;;;5000038;28;20948;-81
2021/09/22 01:06:14;;;;;;;13.67;9.67;;;10.10;99.90;;;;;;5000220;28;20433;-81
2021/09/22 01:08:41;;;;;;;14.03;10.40;;;10.00;99.90;;;;;;4999859;28;20589;-81
2021/09/22 01:11:07;;;;;;;11.93;7.87;;;9.90;99.90;;;;;;5014611;28;20405;-81
2021/09/22 01:13:33;;;;;;;12.10;10.70;;;9.80;99.90;;;;;;4998859;28;20481;-79
2021/09/22 01:15:59;;;;;;;10.70;9.10;;;9.70;99.90;;;;;;5000404;28;20158;-81
2021/09/22 01:18:25;;;;;;;12.10;10.20;;;9.70;99.90;;;;;;5000221;28;20248;-81
2021/09/22 01:20:53;;;;;;;11.80;10.60;;;9.60;99.90;;;;;;5001250;28;20390;-81
2021/09/22 01:23:20;;;;;;;16.60;9.47;;;9.80;99.90;;;;;;5001468;28;20258;-81
2021/09/22 01:25:48;;;;;;;12.77;9.80;;;10.10;99.90;;;;;;5002640;28;20473;-81
2021/09/22 01:28:17;;;;;;;11.63;7.73;;;10.20;99.90;;;;;;5001021;28;20421;-81
2021/09/22 01:30:43;;;;;;;10.50;8.50;;;10.00;99.90;;;;;;4999115;28;20453;-81
2021/09/22 01:33:12;;;;;;;12.50;9.23;;;9.90;99.90;;;;;;4999764;28;20884;-81
2021/09/22 01:35:40;;;;;;;9.47;7.40;;;9.90;99.90;;;;;;4999296;28;20405;-81
2021/09/22 01:38:10;;;;;;;11.03;9.93;;;9.90;99.90;;;;;;4998842;28;20393;-81
2021/09/22 01:40:36;;;;;;;10.50;9.40;;;9.90;99.90;;;;;;4999193;28;20401;-80
2021/09/22 01:43:04;;;;;;;9.30;7.77;;;10.10;99.90;;;;;;4998943;28;20408;-78
2021/09/22 01:45:31;;;;;;;11.43;9.57;;;10.00;99.90;;;;;;4998819;28;20292;-80
2021/09/22 01:47:58;;;;;;;11.23;9.53;;;9.80;99.90;;;;;;4998998;28;20407;-80
2021/09/22 01:50:25;;;;;;;9.77;8.30;;;9.70;99.90;;;;;;4998534;28;20488;-80
2021/09/22 01:52:52;;;;;;;18.33;9.20;;;9.50;99.90;;;;;;4998774;28;20401;-80
2021/09/22 01:55:21;;;;;;;8.90;7.97;;;9.40;99.90;;;;;;4999054;28;20528;-80
2021/09/22 01:57:48;;;;;;;10.27;8.40;;;9.20;99.90;;;;;;4998607;28;20449;-80
2021/09/22 02:00:14;;;;;;;13.53;8.37;;;9.10;99.90;;;;;;4998685;28;20394;-80
2021/09/22 02:02:41;;;;;;;8.10;7.30;;;9.20;99.90;;;;;;4999146;28;20886;-81
2021/09/22 02:05:08;;;;;;;11.00;8.63;;;9.10;99.90;;;;;;5015090;28;20402;-80
2021/09/22 02:07:34;;;;;;;9.80;7.43;;;9.00;99.90;;;;;;5001327;28;20402;-80
2021/09/22 02:10:00;;;;;;;17.13;8.40;;;9.00;99.90;;;;;;5000048;28;20888;-80
2021/09/22 02:12:27;;;;;;;8.50;7.60;;;9.10;99.90;;;;;;5001802;28;20404;-81
2021/09/22 02:14:53;;;;;;;11.13;8.60;;;9.10;99.90;;;;;;5018863;28;20405;-80
2021/09/22 02:17:21;;;;;;;11.53;8.40;;;9.20;99.90;;;;;;5002505;28;20401;-80
2021/09/22 02:19:48;;;;;;;8.73;7.50;;;9.10;99.90;;;;;;5003779;28;20400;-81
2021/09/22 02:22:14;;;;;;;8.47;7.63;;;9.10;99.90;;;;;;5001762;28;20544;-81
2021/09/22 02:24:43;;;;;;;14.05;9.65;;;9.10;99.90;;;;;;4997395;28;20460;-81
2021/09/22 02:27:13;;;;;;;10.83;8.30;;;8.80;99.90;;;;;;4999215;28;20159;-81
2021/09/22 02:29:41;;;;;;;12.20;8.43;;;8.90;99.90;;;;;;5000484;28;20456;-81
2021/09/22 02:32:08;;;;;;;9.67;8.00;;;8.90;99.90;;;;;;4999666;28;20468;-81
2021/09/22 02:34:34;;;;;;;10.63;8.27;;;8.80;99.90;;;;;;4999414;28;20413;-80
2021/09/22 02:36:59;;;;;;;13.27;8.27;;;8.80;99.90;;;;;;5001468;28;20400;-81
2021/09/22 02:39:25;;;;;;;9.53;7.60;;;9.10;99.90;;;;;;4997946;28;20439;-80
2021/09/22 02:41:51;;;;;;;12.00;9.80;;;9.30;99.90;;;;;;4997996;28;20162;-80
2021/09/22 02:44:17;;;;;;;10.87;8.27;;;9.20;99.90;;;;;;4998194;28;20515;-80
2021/09/22 02:46:43;;;;;;;15.47;8.90;;;9.20;99.90;;;;;;4998244;28;20170;-80
2021/09/22 02:49:09;;;;;;;10.77;7.70;;;9.40;99.90;;;;;;4997652;28;20673;-80
2021/09/22 02:51:35;;;;;;;8.77;7.30;;;9.60;99.90;;;;;;5002311;28;20154;-80
2021/09/22 02:54:01;;;;;;;10.20;7.63;;;9.20;99.90;;;;;;5001806;28;20188;-80
2021/09/22 02:56:27;;;;;;;9.53;8.20;;;9.30;99.90;;;;;;5001981;28;20603;-80
2021/09/22 02:58:53;;;;;;;8.87;7.63;;;9.10;99.90;;;;;;5001667;28;20409;-80
2021/09/22 03:01:19;;;;;;;17.80;9.73;;;9.00;99.90;;;;;;5002189;28;20158;-80
2021/09/22 03:03:46;;;;;;;14.87;8.90;;;9.10;99.90;;;;;;5002460;28;20393;-80
2021/09/22 03:06:12;;;;;;;9.70;8.37;;;9.40;99.90;;;;;;5002839;28;20154;-80
2021/09/22 03:08:38;;;;;;;10.43;8.13;;;9.30;99.90;;;;;;5002144;28;20433;-80
2021/09/22 03:11:06;;;;;;;11.83;8.93;;;9.50;99.90;;;;;;5000702;28;20390;-80
2021/09/22 03:13:33;;;;;;;9.40;8.50;;;9.80;99.90;;;;;;5003329;28;20408;-80
2021/09/22 03:15:59;;;;;;;11.67;8.60;;;9.80;99.90;;;;;;5010046;28;20448;-80
2021/09/22 03:18:26;;;;;;;10.20;9.13;;;10.00;99.90;;;;;;5000793;28;20528;-80
2021/09/22 03:20:52;;;;;;;9.10;7.30;;;9.90;99.90;;;;;;5002671;28;20401;-80
2021/09/22 03:23:18;;;;;;;14.77;7.97;;;9.60;99.90;;;;;;5002829;28;20397;-81
2021/09/22 03:25:45;;;;;;;9.73;7.90;;;9.40;99.90;;;;;;5002817;28;20413;-81
2021/09/22 03:28:11;;;;;;;8.43;7.53;;;9.50;99.90;;;;;;5013444;28;20456;-80
2021/09/22 03:30:37;;;;;;;10.40;7.60;;;9.30;99.90;;;;;;5013127;28;20448;-80
2021/09/22 03:33:02;;;;;;;8.77;6.70;;;9.40;99.90;;;;;;5013059;28;20394;-80
2021/09/22 03:35:28;;;;;;;8.40;7.60;;;9.40;99.90;;;;;;5013643;28;20198;-80
2021/09/22 03:37:54;;;;;;;9.03;8.13;;;9.60;99.90;;;;;;5015308;28;20432;-80
2021/09/22 03:40:20;;;;;;;11.53;8.53;;;9.60;99.90;;;;;;5013159;28;20200;-80
2021/09/22 03:42:46;;;;;;;10.30;7.50;;;9.60;99.90;;;;;;5013689;28;20169;-80
2021/09/22 03:45:12;;;;;;;10.43;8.37;;;9.80;99.90;;;;;;5011616;28;20166;-80
2021/09/22 03:47:37;;;;;;;9.37;7.20;;;9.90;99.90;;;;;;5014368;28;20170;-80
2021/09/22 03:50:05;;;;;;;8.90;7.40;;;10.10;99.90;;;;;;5014919;28;20259;-80
2021/09/22 03:52:31;;;;;;;10.10;8.23;;;10.00;99.90;;;;;;5013053;28;20174;-80
2021/09/22 03:54:57;;;;;;;7.93;7.13;;;9.90;99.90;;;;;;4997971;28;20398;-80
2021/09/22 03:57:23;;;;;;;7.83;7.03;;;9.90;99.90;;;;;;5013522;28;20464;-78
2021/09/22 03:59:49;;;;;;;8.07;7.17;;;10.00;99.90;;;;;;5014783;28;20244;-80
2021/09/22 04:02:15;;;;;;;13.33;7.20;;;9.80;99.90;;;;;;5012116;28;20166;-80
2021/09/22 04:04:41;;;;;;;16.73;6.53;;;9.80;99.90;;;;;;5003012;28;20239;-80
2021/09/22 04:07:07;;;;;;;5.83;5.10;;;9.90;99.90;;;;;;5001802;28;20413;-80
2021/09/22 04:09:33;;;;;;;6.93;5.80;;;10.00;99.90;;;;;;5017710;28;20213;-80
2021/09/22 04:11:59;;;;;;;6.97;6.27;;;10.10;99.90;;;;;;5000948;28;20162;-80
2021/09/22 04:14:25;;;;;;;8.80;6.17;;;10.00;99.90;;;;;;5002312;28;20166;-80
2021/09/22 04:16:51;;;;;;;7.30;6.60;;;9.80;99.90;;;;;;5001792;28;20397;-80
2021/09/22 04:19:17;;;;;;;9.17;7.23;;;9.70;99.90;;;;;;5002791;28;20165;-81
2021/09/22 04:21:44;;;;;;;6.63;5.87;;;9.80;99.90;;;;;;5002642;28;20497;-81
2021/09/22 04:24:10;;;;;;;6.10;5.47;;;9.40;99.90;;;;;;5011386;28;20162;-80
2021/09/22 04:26:37;;;;;;;7.47;5.67;;;9.40;99.90;;;;;;5018250;28;20423;-80
2021/09/22 04:29:03;;;;;;;7.87;5.20;;;9.50;99.90;;;;;;5018234;28;20433;-80
2021/09/22 04:31:29;;;;;;;7.13;6.33;;;9.30;99.90;;;;;;5019002;28;20401;-80
2021/09/22 04:33:56;;;;;;;6.63;5.50;;;9.40;99.90;;;;;;5018955;28;20505;-81
2021/09/22 04:36:22;;;;;;;11.13;7.57;;;9.50;99.90;;;;;;5018345;28;20334;-80
2021/09/22 04:38:48;;;;;;;10.47;7.70;;;9.30;99.90;;;;;;5017815;28;20397;-81
2021/09/22 04:41:14;;;;;;;15.10;6.97;;;9.50;99.90;;;;;;5013561;28;20457;-81
2021/09/22 04:43:41;;;;;;;14.40;7.03;;;9.60;99.90;;;;;;4986794;28;20552;-80
2021/09/22 04:46:07;;;;;;;8.67;7.40;;;9.50;99.90;;;;;;5001166;28;20516;-80
2021/09/22 04:48:33;;;;;;;11.03;9.30;;;9.50;99.90;;;;;;5001788;28;20441;-81
2021/09/22 04:50:59;;;;;;;7.80;7.03;;;9.50;99.90;;;;;;4999676;28;20404;-81
2021/09/22 04:53:25;;;;;;;9.67;7.40;;;9.70;99.90;;;;;;5005802;28;20163;-80
2021/09/22 04:55:50;;;;;;;10.77;8.63;;;9.60;99.90;;;;;;5000003;28;20456;-80
2021/09/22 04:58:16;;;;;;;8.13;6.73;;;9.70;99.90;;;;;;5000336;28;20225;-80
2021/09/22 05:00:43;;;;;;;9.37;7.37;;;9.70;99.90;;;;;;4999270;28;20176;-80
2021/09/22 05:03:09;;;;;;;9.53;7.33;;;9.80;99.90;;;;;;4999222;28;20194;-80
2021/09/22 05:05:35;;;;;;;10.17;7.37;;;9.70;99.90;;;;;;4998456;28;20425;-80
2021/09/22 05:08:01;;;;;;;9.40;7.60;;;9.70;99.90;;;;;;4999051;28;20188;-78
2021/09/22 05:10:30;;;;;;;11.10;8.13;;;9.90;99.90;;;;;;4999612;28;20216;-80
2021/09/22 05:12:56;;;;;;;9.63;7.90;;;9.80;99.90;;;;;;4997819;28;20158;-80
2021/09/22 05:15:21;;;;;;;9.03;7.83;;;9.70;99.90;;;;;;4997627;28;20705;-80
2021/09/22 05:17:47;;;;;;;13.40;7.37;;;9.70;99.90;;;;;;4999988;28;20166;-80
2021/09/22 05:20:13;;;;;;;26.20;8.73;;;9.60;99.90;;;;;;5000063;28;20509;-80
2021/09/22 05:22:39;;;;;;;10.60;7.73;;;9.50;99.90;;;;;;4999707;28;20162;-79
2021/09/22 05:25:06;;;;;;;8.37;7.00;;;9.50;99.90;;;;;;5000071;28;20436;-80
2021/09/22 05:27:32;;;;;;;9.90;7.87;;;9.60;99.90;;;;;;5002965;28;20291;-81
2021/09/22 05:29:58;;;;;;;12.30;8.53;;;9.80;99.90;;;;;;5014655;28;20539;-80
2021/09/22 05:32:24;;;;;;;11.20;9.47;;;9.80;99.90;;;;;;4998541;28;20292;-79
2021/09/22 05:34:51;;;;;;;10.10;8.30;;;9.70;99.90;;;;;;4999331;28;20193;-81
2021/09/22 05:37:18;;;;;;;9.30;7.90;;;9.90;99.90;;;;;;4982107;28;20744;-81
2021/09/22 05:39:45;;;;;;;10.00;7.80;;;10.00;99.90;;;;;;4997619;28;20393;-81
2021/09/22 05:42:11;;;;;;;9.57;8.03;;;10.00;99.90;;;;;;4996919;28;20409;-81
2021/09/22 05:44:37;;;;;;;9.23;6.80;;;10.00;99.90;;;;;;4997788;28;20429;-81
2021/09/22 05:47:03;;;;;;;8.07;6.27;;;9.90;99.90;;;;;;4980753;28;20189;-82
2021/09/22 05:49:28;;;;;;;11.50;7.93;;;9.70;99.90;;;;;;4997096;28;20204;-81
2021/09/22 05:51:55;;;;;;;11.27;6.80;;;9.70;99.90;;;;;;4996576;28;20417;-81
2021/09/22 05:54:21;;;;;;;8.57;7.70;;;9.80;99.90;;;;;;4996778;28;20233;-81
2021/09/22 05:56:48;;;;;;;8.23;6.97;;;9.80;99.90;;;;;;4996411;28;20453;-80
2021/09/22 05:59:14;;;;;;;11.20;7.60;;;10.00;99.90;;;;;;4996365;28;20401;-82
2021/09/22 06:01:40;;;;;;;9.23;7.57;;;10.10;99.90;;;;;;4997182;28;20433;-81
2021/09/22 06:04:07;;;;;;;7.90;7.10;;;9.80;99.90;;;;;;4998442;28;20186;-81
2021/09/22 06:06:33;;;;;;;9.20;7.40;;;9.80;99.90;;;;;;4999057;28;20428;-81
2021/09/22 06:08:59;;;;;;;7.67;6.50;;;9.80;99.90;;;;;;4997797;28;20461;-81
2021/09/22 06:11:25;;;;;;;7.57;6.87;;;9.80;99.90;;;;;;5014341;28;20770;-81
2021/09/22 06:13:54;;;;;;;10.07;7.80;;;9.80;99.90;;;;;;4997091;28;20401;-82
2021/09/22 06:16:21;;;;;;;9.87;6.70;;;9.80;99.90;;;;;;4999648;28;20218;-82
2021/09/22 06:18:47;;;;;;;8.63;7.83;;;9.90;99.90;;;;;;5006100;28;20409;-81
2021/09/22 06:21:13;;;;;;;11.27;7.90;;;10.00;99.90;;;;;;5002478;28;20994;-81
2021/09/22 06:23:39;;;;;;;10.77;7.13;;;10.00;99.90;;;;;;5017337;28;20169;-81
2021/09/22 06:26:05;;;;;;;26.03;9.93;;;9.90;99.90;;;;;;5017476;28;20462;-81
2021/09/22 06:28:31;;;;;;;6.50;5.90;;;10.00;99.90;;;;;;5016502;28;20162;-81
2021/09/22 06:31:01;;;;;;;7.17;6.40;;;10.10;99.90;;;;;;5013798;28;20455;-82
2021/09/22 06:33:27;;;;;;;8.07;6.83;;;10.30;99.90;;;;;;5000871;28;20418;-82
2021/09/22 06:35:59;;;;;;;9.40;6.67;;;10.10;99.90;;;;;;5009940;28;20409;-81
2021/09/22 06:38:26;;;;;;;10.50;6.90;;;10.20;99.90;;;;;;5011561;28;20209;-81
2021/09/22 06:40:53;;;;;;;9.33;6.90;;;10.20;99.90;;;;;;5015083;28;20498;-81
2021/09/22 06:43:19;;;;;;;15.80;6.90;;;10.30;99.90;;;;;;5009425;28;20450;-81
2021/09/22 06:45:45;;;;;;;7.67;6.23;;;10.50;99.90;;;;;;5006965;28;20464;-82
2021/09/22 06:48:10;;;;;;;7.23;6.53;;;10.40;99.90;;;;;;5033414;28;20173;-81
2021/09/22 06:50:37;;;;;;;8.40;6.47;;;10.40;99.90;;;;;;5012187;28;20456;-83
2021/09/22 06:53:03;;;;;;;10.53;6.43;;;10.50;99.90;;;;;;5011829;28;20185;-82
2021/09/22 06:55:29;;;;;;;9.80;7.30;;;10.60;99.90;;;;;;5018054;28;20416;-82
2021/09/22 06:57:55;;;;;;;11.63;8.23;;;11.10;99.90;;;;;;5016883;28;20848;-82
2021/09/22 07:00:21;;;;;;;7.83;6.90;;;11.40;99.90;;;;;;5010908;28;20538;-82
2021/09/22 07:02:47;;;;;;;7.83;6.80;;;11.50;99.90;;;;;;5019528;28;20523;-82
2021/09/22 07:05:14;;;;;;;9.77;8.27;;;11.30;99.90;;;;;;5008050;28;20200;-82
2021/09/22 07:07:45;;;;;;;8.70;6.57;;;11.30;99.90;;;;;;5011034;28;20445;-81
2021/09/22 07:10:11;;;;;;;9.67;7.93;;;11.10;99.90;;;;;;5006545;28;20502;-81
2021/09/22 07:12:37;;;;;;;9.80;6.60;;;11.30;99.90;;;;;;5003812;28;20424;-81
2021/09/22 07:15:03;;;;;;;8.43;6.00;;;11.60;99.90;;;;;;5016156;28;20418;-81
2021/09/22 07:17:29;;;;;;;9.93;7.50;;;11.80;99.90;;;;;;5015248;28;20185;-80
2021/09/22 07:19:55;;;;;;;7.70;7.00;;;11.60;99.90;;;;;;5015691;28;20427;-82
2021/09/22 07:22:21;;;;;;;10.30;7.37;;;11.70;99.90;;;;;;5014808;28;20482;-82
2021/09/22 07:24:48;;;;;;;8.50;6.13;;;11.80;99.90;;;;;;5014964;28;20684;-82
2021/09/22 07:27:16;;;;;;;12.73;6.50;;;11.80;99.90;;;;;;5017077;28;20444;-82
2021/09/22 07:29:42;;;;;;;9.73;6.80;;;11.80;99.90;;;;;;5015766;28;20968;-81
2021/09/22 07:32:09;;;;;;;11.00;7.30;;;11.80;99.90;;;;;;5014396;28;20424;-81
2021/09/22 07:34:35;;;;;;;9.67;6.97;;;12.20;99.90;;;;;;5014091;28;20424;-82
2021/09/22 07:37:07;;;;;;;10.90;6.70;;;12.10;99.90;;;;;;5007580;28;20420;-81
2021/09/22 07:39:34;;;;;;;7.67;6.60;;;12.20;99.90;;;;;;5013722;28;20435;-81
2021/09/22 07:42:00;;;;;;;8.60;7.17;;;12.60;99.90;;;;;;5005072;28;20534;-80
2021/09/22 07:44:26;;;;;;;8.80;5.90;;;12.90;99.90;;;;;;5019176;28;20419;-81
2021/09/22 07:46:52;;;;;;;10.00;6.87;;;13.10;99.90;;;;;;5021558;28;20424;-81
2021/09/22 07:49:20;;;;;;;7.30;6.50;;;13.30;99.90;;;;;;5008657;28;20228;-82
2021/09/22 07:51:46;;;;;;;10.27;7.07;;;13.50;99.90;;;;;;5004813;28;20162;-84
2021/09/22 07:54:14;;;;;;;9.60;6.50;;;13.60;99.90;;;;;;5004852;28;20523;-84
2021/09/22 07:56:39;;;;;;;8.53;6.10;;;13.30;99.90;;;;;;5010687;28;20300;-84
2021/09/22 07:59:05;;;;;;;9.90;7.40;;;13.20;99.90;;;;;;4994970;28;20455;-84
2021/09/22 08:01:31;;;;;;;16.27;8.07;;;13.30;99.90;;;;;;4998743;28;20186;-84
2021/09/22 08:04:00;;;;;;;9.40;6.50;;;13.70;99.90;;;;;;5013788;28;20436;-84
2021/09/22 08:06:26;;;;;;;21.50;9.00;;;13.80;99.90;;;;;;5002880;28;20616;-83
2021/09/22 08:08:52;;;;;;;11.27;6.37;;;13.80;99.90;;;;;;4993932;28;20475;-84
2021/09/22 08:11:20;;;;;;;9.10;6.63;;;13.80;99.90;;;;;;4999720;28;20651;-84
2021/09/22 08:13:46;;;;;;;8.97;6.80;;;14.00;99.90;;;;;;4992408;28;20161;-82
2021/09/22 08:16:12;;;;;;;10.60;6.00;;;14.30;99.90;;;;;;5011893;28;20439;-83
2021/09/22 08:18:38;;;;;;;6.17;5.57;;;14.10;99.90;;;;;;5017697;28;20424;-84
2021/09/22 08:21:04;;;;;;;7.83;6.43;;;14.10;99.90;;;;;;5014108;28;20276;-84
2021/09/22 08:23:30;;;;;;;6.57;5.37;;;14.30;99.90;;;;;;5017957;28;20527;-85
2021/09/22 08:25:56;;;;;;;6.53;5.97;;;14.30;99.90;;;;;;5014309;28;20473;-83
2021/09/22 08:28:21;;;;;;;7.40;6.33;;;14.20;99.90;;;;;;4994869;28;20182;-84
2021/09/22 08:30:47;;;;;;;6.27;5.30;;;14.40;99.90;;;;;;4991915;28;20697;-84
2021/09/22 08:33:14;;;;;;;10.07;4.90;;;14.60;99.90;;;;;;5003709;28;20417;-83
2021/09/22 08:35:40;;;;;;;8.63;6.37;;;14.60;99.90;;;;;;5001436;28;20216;-83
2021/09/22 08:38:06;;;;;;;7.50;5.50;;;14.70;99.90;;;;;;5014070;28;20428;-83
2021/09/22 08:40:32;;;;;;;9.87;5.20;;;14.90;99.90;;;;;;4998963;28;20182;-84
2021/09/22 08:42:59;;;;;;;9.23;6.27;;;14.90;99.90;;;;;;5021147;28;20436;-83
2021/09/22 08:45:25;;;;;;;7.77;6.40;;;14.90;99.90;;;;;;5019572;28;20193;-84
2021/09/22 08:47:51;;;;;;;5.80;5.20;;;14.70;99.90;;;;;;5018517;28;20435;-84
2021/09/22 08:50:19;;;;;;;9.07;5.40;;;14.20;99.90;;;;;;5019491;28;20456;-84
2021/09/22 08:52:46;;;;;;;9.77;6.43;;;14.30;99.90;;;;;;5018699;28;20419;-84
2021/09/22 08:55:13;;;;;;;5.83;4.93;;;14.20;99.90;;;;;;5008556;28;20488;-84
2021/09/22 08:57:39;;;;;;;7.40;5.80;;;14.00;99.90;;;;;;5011855;28;20480;-84
2021/09/22 09:00:08;;;;;;;9.93;5.53;;;13.90;99.90;;;;;;5006272;28;20495;-83
2021/09/22 09:02:40;;;;;;;9.13;6.07;;;13.80;99.90;;;;;;5005645;28;20432;-83
2021/09/22 09:05:11;;;;;;;9.00;5.63;;;13.90;99.90;;;;;;5014383;28;20516;-83
2021/09/22 09:07:54;;;;;;;8.60;5.87;;;14.40;99.90;;;;;;4998062;28;20898;-84
2021/09/22 09:10:24;;;;;;;8.50;6.10;;;14.20;99.90;;;;;;5019374;28;20471;-83
2021/09/22 09:13:04;;;;;;;16.70;7.37;;;14.00;99.90;;;;;;5020770;28;20432;-84
2021/09/22 09:15:36;;;;;;;8.37;6.30;;;13.90;99.90;;;;;;5012884;28;20415;-83
2021/09/22 09:18:11;;;;;;;7.47;6.60;;;14.00;99.90;;;;;;5018379;28;20436;-83
2021/09/22 09:20:37;;;;;;;9.37;5.70;;;14.00;99.90;;;;;;5016107;28;20424;-84
2021/09/22 09:23:09;;;;;;;9.80;6.70;;;14.20;99.90;;;;;;5020184;28;20439;-83
2021/09/22 09:25:57;;;;;;;9.00;6.57;;;14.30;99.90;;;;;;5009706;28;20426;-84
2021/09/22 09:28:34;;;;;;;12.60;6.93;;;14.60;99.90;;;;;;5023736;28;20463;-83
2021/09/22 09:31:05;;;;;;;12.60;6.33;;;15.00;99.90;;;;;;5020718;28;20492;-85
2021/09/22 09:33:41;;;;;;;8.70;7.53;;;14.90;99.90;;;;;;5012295;28;20434;-84
2021/09/22 09:36:28;;;;;;;8.07;4.93;;;15.40;99.90;;;;;;5043848;28;20422;-84
2021/09/22 09:39:03;;;;;;;8.67;4.37;;;15.80;99.90;;;;;;5031650;28;20419;-84
2021/09/22 09:41:49;;;;;;;9.37;6.10;;;16.30;99.90;;;;;;4993894;28;20413;-84
2021/09/22 09:44:21;;;;;;;7.90;5.57;;;16.90;99.90;;;;;;5001455;28;21004;-83
2021/09/22 09:46:48;;;;;;;6.80;4.90;;;16.90;99.90;;;;;;5008596;28;20506;-84
2021/09/22 09:49:17;;;;;;;10.13;5.17;;;17.10;99.90;;;;;;5028745;28;20595;-84
2021/09/22 09:51:47;;;;;;;6.00;4.70;;;17.30;99.90;;;;;;5031953;28;20403;-83
2021/09/22 09:54:23;;;;;;;7.70;5.80;;;17.40;99.90;;;;;;5020035;28;20879;-84
2021/09/22 09:56:51;;;;;;;4.47;4.07;;;17.40;99.90;;;;;;5016495;28;20439;-84
2021/09/22 09:59:20;;;;;;;9.53;4.90;;;17.20;99.90;;;;;;4998559;28;20537;-83
2021/09/22 10:01:49;;;;;;;4.87;4.40;;;17.50;99.90;;;;;;4984266;28;20535;-83
2021/09/22 10:04:18;;;;;;;8.30;5.43;;;17.80;99.90;;;;;;5006630;28;20428;-85
2021/09/22 10:06:47;;;;;;;5.67;4.90;;;17.80;99.90;;;;;;4966631;28;20448;-84
2021/09/22 10:09:14;;;;;;;5.10;4.50;;;17.70;99.90;;;;;;4997533;28;20611;-84
2021/09/22 10:11:44;;;;;;;12.00;5.40;;;18.10;99.90;;;;;;4999825;28;20474;-84
2021/09/22 10:14:13;;;;;;;5.87;4.70;;;18.60;99.90;;;;;;4984498;28;20416;-84
2021/09/22 10:16:40;;;;;;;8.13;5.60;;;18.80;99.90;;;;;;4999574;28;20428;-86
2021/09/22 10:19:08;;;;;;;7.63;4.20;;;18.50;99.90;;;;;;5004199;28;20436;-85
2021/09/22 10:21:37;;;;;;;5.07;3.90;;;17.90;99.90;;;;;;4983093;28;20443;-84
2021/09/22 10:24:07;;;;;;;8.13;4.53;;;18.00;99.90;;;;;;5010863;28;20446;-85
2021/09/22 10:26:33;;;;;;;5.03;4.63;;;18.30;99.90;;;;;;4971569;28;20444;-86
2021/09/22 10:29:00;;;;;;;7.30;3.80;;;18.10;99.90;;;;;;5015113;28;20945;-84
2021/09/22 10:31:37;;;;;;;5.97;4.27;;;18.60;99.90;;;;;;5025721;28;20439;-84
2021/09/22 10:34:04;;;;;;;4.50;3.30;;;19.10;99.90;;;;;;5014100;28;20496;-83
2021/09/22 10:36:40;;;;;;;4.40;4.00;;;18.60;99.90;;;;;;5030578;28;20384;-81
2021/09/22 10:39:22;;;;;;;4.40;4.00;;;18.40;99.90;;;;;;5000007;28;20439;-83
2021/09/22 10:41:48;;;;;;;5.10;4.63;;;18.40;99.90;;;;;;5036068;28;20420;-82
2021/09/22 10:44:31;;;;;;;4.67;3.70;;;18.50;99.90;;;;;;5034153;28;20427;-81
2021/09/22 10:47:26;;;;;;;5.10;3.80;;;19.00;99.90;;;;;;5031877;28;20188;-82
2021/09/22 10:49:54;;;;;;;5.23;4.33;;;19.30;99.90;;;;;;5035034;28;20458;-80
2021/09/22 10:52:39;;;;;;;11.97;4.23;;;19.00;99.90;;;;;;5031353;28;20530;-83
2021/09/22 10:55:09;;;;;;;5.23;4.00;;;19.10;99.90;;;;;;5035230;28;20893;-84
2021/09/22 10:57:36;;;;;;;5.23;4.53;;;19.50;99.90;;;;;;5036891;28;20570;-83
2021/09/22 11:00:13;;;;;;;6.37;3.80;;;19.70;99.90;;;;;;5001437;28;20803;-83
2021/09/22 11:02:45;;;;;;;4.93;3.60;;;18.40;99.90;;;;;;5025008;28;20818;-82
2021/09/22 11:05:14;;;;;;;7.90;3.37;;;18.90;99.90;;;;;;5002146;28;20419;-83
2021/09/22 11:08:04;;;;;;;5.50;3.47;;;20.00;99.90;;;;;;5036655;28;20411;-82
2021/09/22 11:10:34;;;;;;;5.27;3.93;;;19.00;99.90;;;;;;5029616;28;20794;-82
2021/09/22 11:13:31;;;;;;;4.17;3.73;;;19.60;99.90;;;;;;5008050;28;20424;-83
2021/09/22 11:16:10;;;;;;;6.43;3.73;;;19.40;99.90;;;;;;5022974;28;20415;-83
2021/09/22 11:18:40;;;;;;;4.00;3.57;;;19.50;99.90;;;;;;5005228;28;20793;-82
2021/09/22 11:21:06;;;;;;;5.23;4.60;;;19.40;99.90;;;;;;5020420;28;20443;-82
2021/09/22 11:23:32;;;;;;;4.07;3.60;;;19.30;99.90;;;;;;5022950;28;20447;-83
2021/09/22 11:26:07;;;;;;;5.73;3.40;;;19.10;99.90;;;;;;5021680;28;20416;-83
2021/09/22 11:28:34;;;;;;;4.53;4.07;;;18.50;99.90;;;;;;5019327;28;20563;-83
2021/09/22 11:31:00;;;;;;;3.73;3.10;;;18.70;99.90;;;;;;5012453;28;20509;-83
2021/09/22 11:33:28;;;;;;;3.53;3.20;;;19.20;99.90;;;;;;5021915;28;20448;-83
2021/09/22 11:36:03;;;;;;;4.40;4.00;;;19.40;99.90;;;;;;5001180;28;20169;-84
2021/09/22 11:38:33;;;;;;;5.60;3.90;;;19.80;99.90;;;;;;5016443;28;20416;-83
2021/09/22 11:41:00;;;;;;;7.03;3.50;;;20.30;99.90;;;;;;5018309;28;20413;-83
2021/09/22 11:43:26;;;;;;;5.50;4.17;;;20.80;99.90;;;;;;5022539;28;20408;-83
2021/09/22 11:45:59;;;;;;;4.60;3.50;;;21.00;99.90;;;;;;5020058;28;20412;-83
2021/09/22 11:48:31;;;;;;;6.60;3.93;;;21.00;99.90;;;;;;5020274;28;20169;-84
2021/09/22 11:50:58;;;;;;;7.33;4.10;;;21.20;99.90;;;;;;5020653;28;20487;-83
2021/09/22 11:53:26;;;;;;;4.77;3.37;;;21.10;99.90;;;;;;5001193;28;20441;-83
2021/09/22 11:55:53;;;;;;;5.63;5.03;;;20.00;99.90;;;;;;5013232;28;20465;-82
2021/09/22 11:58:22;;;;;;;6.40;3.90;;;19.00;99.90;;;;;;5018514;28;20463;-82
2021/09/22 12:00:51;;;;;;;15.53;4.20;;;18.30;99.90;;;;;;5001399;28;20417;-83
2021/09/22 12:03:22;;;;;;;3.63;3.33;;;18.10;99.90;;;;;;4985919;28;20398;-83
2021/09/22 12:06:03;;;;;;;4.23;3.83;;;18.10;99.90;;;;;;5006224;28;20432;-82
2021/09/22 12:08:31;;;;;;;3.93;3.40;;;18.40;99.90;;;;;;5020243;28;20444;-82
2021/09/22 12:10:58;;;;;;;4.47;3.17;;;19.00;99.90;;;;;;5019949;28;20448;-82
2021/09/22 12:13:24;;;;;;;7.57;3.87;;;19.90;99.90;;;;;;5019656;28;20423;-82
2021/09/22 12:15:55;;;;;;;3.87;3.37;;;20.50;99.90;;;;;;5020070;28;20412;-82
2021/09/22 12:18:22;;;;;;;3.90;3.60;;;21.60;99.90;;;;;;5007594;28;20568;-82
2021/09/22 12:20:48;;;;;;;6.00;3.07;;;21.80;99.90;;;;;;5020688;28;20421;-83
2021/09/22 12:23:22;;;;;;;7.37;5.00;;;20.60;99.90;;;;;;5018900;28;20444;-81
2021/09/22 12:25:48;;;;;;;5.30;3.40;;;21.40;99.90;;;;;;5012668;28;20515;-82
2021/09/22 12:28:24;;;;;;;4.30;3.43;;;20.20;99.90;;;;;;5010008;28;20559;-83
2021/09/22 12:30:50;;;;;;;4.33;3.70;;;20.00;99.90;;;;;;5010355;28;20209;-82
2021/09/22 12:33:19;;;;;;;4.20;3.90;;;20.10;99.90;;;;;;5021514;28;20443;-82
2021/09/22 12:35:46;;;;;;;6.77;3.50;;;20.50;99.90;;;;;;5011593;28;20439;-82
2021/09/22 12:38:16;;;;;;;4.90;3.47;;;21.80;99.90;;;;;;5020061;28;20455;-82
2021/09/22 12:40:46;;;;;;;5.90;3.17;;;21.20;99.90;;;;;;5011431;28;20543;-82
2021/09/22 12:43:29;;;;;;;3.00;2.70;;;21.50;99.90;;;;;;5010624;28;20445;-81
2021/09/22 12:46:11;;;;;;;5.03;3.10;;;23.60;99.90;;;;;;5019044;28;20415;-83
2021/09/22 12:48:38;;;;;;;3.53;2.20;;;24.80;99.90;;;;;;5008611;28;20420;-83